createdAt,value
2017-12-26T00:02:18.470Z,77.69
2017-12-26T00:04:44.263Z,77.83
2017-12-26T00:07:10.039Z,77.75
2017-12-26T00:09:35.822Z,77.88
2017-12-26T00:12:01.611Z,78.09
2017-12-26T00:14:27.731Z,77.91
2017-12-26T00:16:53.539Z,77.97
2017-12-26T00:19:19.339Z,77.81
2017-12-26T00:21:45.390Z,77.77
2017-12-26T00:24:11.191Z,78.12
2017-12-26T00:26:36.974Z,77.82
2017-12-26T00:29:02.779Z,77.94
2017-12-26T00:31:28.583Z,77.34
2017-12-26T00:33:54.363Z,77.57
2017-12-26T00:36:20.166Z,77.74
2017-12-26T00:38:45.953Z,77.89
2017-12-26T00:41:11.780Z,77.19
2017-12-26T00:43:37.568Z,77.13
2017-12-26T00:46:03.362Z,77.35
2017-12-26T00:48:29.199Z,77.23
2017-12-26T00:50:54.975Z,77.18
2017-12-26T00:53:20.772Z,76.83
2017-12-26T00:55:46.576Z,76.87
2017-12-26T00:58:12.364Z,76.92
2017-12-26T01:00:38.164Z,76.62
2017-12-26T01:03:04.002Z,77.08
2017-12-26T01:05:29.797Z,76.58
2017-12-26T01:07:55.602Z,76.99
2017-12-26T01:10:21.407Z,77.15
2017-12-26T01:12:47.204Z,76.98
2017-12-26T01:17:45.710Z,77.53
2017-12-26T01:20:11.502Z,77.83
2017-12-26T01:22:37.504Z,77.47
2017-12-26T01:25:03.315Z,77.38
2017-12-26T01:27:29.099Z,77.41
2017-12-26T01:29:54.923Z,77.95
2017-12-26T01:32:20.711Z,77.19
2017-12-26T01:34:46.509Z,77.24
2017-12-26T01:37:12.319Z,77.02
2017-12-26T01:39:38.114Z,77.12
2017-12-26T01:42:03.943Z,77.69
2017-12-26T01:44:29.954Z,76.98
2017-12-26T01:46:55.799Z,76.93
2017-12-26T01:49:21.616Z,77.08
2017-12-26T01:51:47.398Z,76.71
2017-12-26T01:54:13.205Z,77.17
2017-12-26T01:56:39.009Z,76.97
2017-12-26T01:59:04.782Z,77.40
2017-12-26T02:01:31.414Z,77.19
2017-12-26T02:03:57.220Z,77.63
2017-12-26T02:06:23.023Z,77.49
2017-12-26T02:08:48.827Z,77.40
2017-12-26T02:11:14.644Z,77.92
2017-12-26T02:13:40.423Z,77.79
2017-12-26T02:16:06.231Z,77.42
2017-12-26T02:18:32.031Z,77.62
2017-12-26T02:20:57.818Z,77.80
2017-12-26T02:23:23.598Z,77.55
2017-12-26T02:25:49.380Z,77.76
2017-12-26T02:28:15.166Z,77.71
2017-12-26T02:30:40.939Z,77.85
2017-12-26T02:33:06.706Z,77.93
2017-12-26T02:35:32.523Z,77.90
2017-12-26T02:37:58.313Z,77.97
2017-12-26T02:40:24.086Z,77.94
2017-12-26T02:42:49.891Z,78.02
2017-12-26T02:45:15.695Z,77.96
2017-12-26T02:47:41.475Z,78.37
2017-12-26T02:50:07.304Z,78.07
2017-12-26T02:52:33.106Z,78.29
2017-12-26T02:54:58.888Z,78.50
2017-12-26T02:57:24.702Z,78.29
2017-12-26T02:59:50.487Z,78.27
2017-12-26T03:02:16.268Z,78.06
2017-12-26T03:04:42.074Z,78.15
2017-12-26T03:07:07.887Z,78.57
2017-12-26T03:09:33.712Z,78.08
2017-12-26T03:11:59.486Z,78.07
2017-12-26T03:14:25.255Z,78.22
2017-12-26T03:16:51.046Z,78.11
2017-12-26T03:19:16.826Z,77.84
2017-12-26T03:21:42.625Z,78.07
2017-12-26T03:24:08.443Z,78.08
2017-12-26T03:26:34.227Z,77.71
2017-12-26T03:29:00.015Z,78.21
2017-12-26T03:31:25.811Z,77.79
2017-12-26T03:33:51.595Z,77.63
2017-12-26T03:36:17.382Z,77.51
2017-12-26T03:38:43.165Z,77.47
2017-12-26T03:41:08.959Z,77.53
2017-12-26T03:43:34.742Z,77.22
2017-12-26T03:46:00.520Z,77.48
2017-12-26T03:48:26.362Z,76.64
2017-12-26T03:50:52.110Z,76.93
2017-12-26T03:53:17.890Z,76.62
2017-12-26T03:55:43.686Z,76.86
2017-12-26T03:58:09.469Z,76.91
2017-12-26T04:00:35.252Z,77.26
2017-12-26T04:03:01.051Z,76.35
2017-12-26T04:05:26.831Z,76.56
2017-12-26T04:07:52.618Z,76.70
2017-12-26T04:10:18.420Z,76.47
2017-12-26T04:12:44.207Z,76.17
2017-12-26T04:15:09.990Z,76.82
2017-12-26T04:17:36.127Z,76.33
2017-12-26T04:20:01.929Z,75.90
2017-12-26T04:22:27.711Z,76.16
2017-12-26T04:24:53.494Z,76.14
2017-12-26T04:27:19.275Z,75.95
2017-12-26T04:29:45.104Z,76.10
2017-12-26T04:32:10.897Z,75.96
2017-12-26T04:34:36.675Z,76.14
2017-12-26T04:37:02.750Z,76.46
2017-12-26T04:39:28.563Z,76.51
2017-12-26T04:41:54.339Z,76.46
2017-12-26T04:44:20.156Z,76.23
2017-12-26T04:46:45.950Z,76.34
2017-12-26T04:49:11.735Z,76.32
2017-12-26T04:51:37.522Z,76.83
2017-12-26T04:54:03.297Z,76.42
2017-12-26T04:56:29.088Z,76.70
2017-12-26T04:58:54.906Z,76.57
2017-12-26T05:01:21.559Z,76.41
2017-12-26T05:03:47.384Z,76.31
2017-12-26T05:06:13.385Z,76.41
2017-12-26T05:08:39.174Z,76.62
2017-12-26T05:11:04.989Z,76.51
2017-12-26T05:13:30.766Z,77.15
2017-12-26T05:15:56.554Z,76.14
2017-12-26T05:18:22.355Z,76.47
2017-12-26T05:20:48.161Z,76.87
2017-12-26T05:23:13.963Z,76.54
2017-12-26T05:25:39.751Z,76.17
2017-12-26T05:28:05.970Z,76.08
2017-12-26T05:30:31.766Z,76.16
2017-12-26T05:32:57.539Z,76.40
2017-12-26T05:35:23.371Z,76.09
2017-12-26T05:37:49.188Z,75.87
2017-12-26T05:40:14.968Z,76.13
2017-12-26T05:42:40.791Z,76.27
2017-12-26T05:45:06.578Z,76.41
2017-12-26T05:47:32.371Z,76.79
2017-12-26T05:49:58.972Z,76.86
2017-12-26T05:52:24.750Z,76.86
2017-12-26T05:54:50.539Z,77.21
2017-12-26T05:57:16.324Z,77.09
2017-12-26T05:59:42.098Z,77.28
2017-12-26T06:02:07.890Z,77.33
2017-12-26T06:04:33.665Z,77.96
2017-12-26T06:06:59.486Z,77.54
2017-12-26T06:09:25.450Z,77.81
2017-12-26T06:11:51.233Z,77.74
2017-12-26T06:14:17.014Z,77.82
2017-12-26T06:16:43.043Z,78.04
2017-12-26T06:19:08.826Z,78.08
2017-12-26T06:21:34.609Z,78.10
2017-12-26T06:24:00.411Z,78.37
2017-12-26T06:26:26.178Z,78.39
2017-12-26T06:28:51.950Z,78.54
2017-12-26T06:31:17.774Z,79.06
2017-12-26T06:33:43.554Z,79.13
2017-12-26T06:36:09.326Z,79.10
2017-12-26T06:38:35.135Z,79.68
2017-12-26T06:41:00.916Z,78.95
2017-12-26T06:43:26.706Z,78.88
2017-12-26T06:45:52.758Z,79.06
2017-12-26T06:48:18.551Z,79.31
2017-12-26T06:50:44.341Z,79.18
2017-12-26T06:53:10.158Z,79.19
2017-12-26T06:55:35.946Z,78.95
2017-12-26T06:58:01.726Z,79.30
2017-12-26T07:00:27.522Z,79.44
2017-12-26T07:02:53.301Z,79.27
2017-12-26T07:05:19.125Z,79.19
2017-12-26T07:07:44.907Z,79.27
2017-12-26T07:10:10.693Z,79.30
2017-12-26T07:12:36.515Z,78.75
2017-12-26T07:15:02.332Z,78.24
2017-12-26T07:17:28.106Z,77.99
2017-12-26T07:19:54.132Z,78.20
2017-12-26T07:22:21.938Z,78.03
2017-12-26T07:24:47.723Z,77.83
2017-12-26T07:27:13.835Z,78.12
2017-12-26T07:29:39.647Z,77.80
2017-12-26T07:32:05.423Z,77.85
2017-12-26T07:34:31.206Z,77.38
2017-12-26T07:36:56.987Z,77.32
2017-12-26T07:39:23.633Z,77.19
2017-12-26T07:41:49.428Z,76.68
2017-12-26T07:44:15.212Z,76.99
2017-12-26T07:46:41.004Z,76.76
2017-12-26T07:49:06.780Z,76.45
2017-12-26T07:51:32.822Z,76.53
2017-12-26T07:53:58.618Z,76.26
2017-12-26T07:56:24.426Z,75.85
2017-12-26T07:58:50.219Z,75.60
2017-12-26T08:01:16.019Z,75.75
2017-12-26T08:03:41.789Z,75.00
2017-12-26T08:06:07.595Z,75.22
2017-12-26T08:08:33.406Z,75.14
2017-12-26T08:10:59.211Z,75.22
2017-12-26T08:13:24.997Z,74.85
2017-12-26T08:15:50.779Z,74.60
2017-12-26T08:18:16.612Z,74.19
2017-12-26T08:20:42.406Z,74.36
2017-12-26T08:23:08.174Z,74.18
2017-12-26T08:25:33.987Z,74.01
2017-12-26T08:27:59.754Z,73.93
2017-12-26T08:30:25.530Z,74.11
2017-12-26T08:32:51.538Z,74.09
2017-12-26T08:35:17.320Z,74.11
2017-12-26T08:37:43.096Z,74.17
2017-12-26T08:40:08.915Z,74.26
2017-12-26T08:42:34.707Z,74.21
2017-12-26T08:45:00.494Z,74.11
2017-12-26T08:47:26.311Z,74.34
2017-12-26T08:49:52.104Z,74.37
2017-12-26T08:52:17.906Z,74.32
2017-12-26T08:54:43.724Z,74.63
2017-12-26T08:57:09.509Z,74.79
2017-12-26T08:59:35.450Z,75.16
2017-12-26T09:02:01.263Z,75.17
2017-12-26T09:04:27.278Z,75.03
2017-12-26T09:06:53.084Z,75.19
2017-12-26T09:09:18.872Z,75.52
2017-12-26T09:11:44.676Z,75.79
2017-12-26T09:14:10.468Z,76.15
2017-12-26T09:16:36.250Z,76.41
2017-12-26T09:19:02.040Z,76.33
2017-12-26T09:21:27.822Z,76.99
2017-12-26T09:23:53.623Z,76.52
2017-12-26T09:26:19.415Z,76.54
2017-12-26T09:28:45.374Z,77.14
2017-12-26T09:31:11.153Z,77.05
2017-12-26T09:33:36.951Z,77.24
2017-12-26T09:36:02.782Z,77.21
2017-12-26T09:38:28.566Z,77.18
2017-12-26T09:40:54.360Z,77.22
2017-12-26T09:43:20.162Z,77.81
2017-12-26T09:45:48.036Z,77.11
2017-12-26T09:48:13.834Z,78.10
2017-12-26T09:50:39.642Z,77.68
2017-12-26T09:53:05.425Z,77.12
2017-12-26T09:55:31.194Z,77.24
2017-12-26T09:57:57.215Z,76.92
2017-12-26T10:00:23.338Z,77.39
2017-12-26T10:02:49.157Z,78.54
2017-12-26T10:05:15.182Z,80.19
2017-12-26T10:07:40.969Z,84.13
2017-12-26T10:10:06.755Z,86.36
2017-12-26T10:12:32.574Z,88.03
2017-12-26T10:14:58.379Z,87.66
2017-12-26T10:17:25.207Z,87.23
2017-12-26T10:19:51.088Z,89.66
2017-12-26T10:22:17.101Z,90.20
2017-12-26T10:24:49.751Z,90.64
2017-12-26T10:27:15.956Z,91.07
2017-12-26T10:29:41.738Z,91.98
2017-12-26T10:32:07.531Z,92.34
2017-12-26T10:34:33.528Z,92.80
2017-12-26T10:36:59.330Z,94.13
2017-12-26T10:39:25.130Z,93.24
2017-12-26T10:41:50.933Z,92.94
2017-12-26T10:44:16.785Z,93.10
2017-12-26T10:46:42.567Z,93.72
2017-12-26T10:49:08.690Z,93.13
2017-12-26T10:51:34.735Z,92.53
2017-12-26T10:54:01.009Z,92.94
2017-12-26T10:56:27.115Z,92.48
2017-12-26T10:58:53.340Z,92.29
2017-12-26T11:01:19.562Z,91.86
2017-12-26T11:03:45.411Z,91.99
2017-12-26T11:06:12.944Z,92.33
2017-12-26T11:08:38.737Z,91.64
2017-12-26T11:11:04.806Z,90.55
2017-12-26T11:13:30.616Z,90.66
2017-12-26T11:15:56.459Z,90.28
2017-12-26T11:18:22.748Z,90.69
2017-12-26T11:20:48.708Z,90.25
2017-12-26T11:23:14.964Z,89.29
2017-12-26T11:25:41.129Z,89.41
2017-12-26T11:28:06.956Z,88.28
2017-12-26T11:30:32.808Z,86.52
2017-12-26T11:32:58.663Z,87.06
2017-12-26T11:35:26.056Z,86.50
2017-12-26T11:37:51.927Z,85.78
2017-12-26T11:40:17.814Z,87.19
2017-12-26T11:42:43.612Z,87.02
2017-12-26T11:45:09.784Z,85.86
2017-12-26T11:47:35.586Z,85.17
2017-12-26T11:50:01.389Z,85.18
2017-12-26T11:52:28.097Z,85.76
2017-12-26T11:54:53.915Z,85.42
2017-12-26T11:57:20.786Z,84.58
2017-12-26T11:59:48.019Z,84.53
2017-12-26T12:02:13.857Z,84.10
2017-12-26T12:04:39.666Z,82.43
2017-12-26T12:07:06.180Z,82.08
2017-12-26T12:09:32.316Z,82.72
2017-12-26T12:11:58.117Z,82.04
2017-12-26T12:14:23.911Z,81.62
2017-12-26T12:16:49.848Z,81.87
2017-12-26T12:19:15.648Z,81.73
2017-12-26T12:21:41.445Z,80.24
2017-12-26T12:24:07.248Z,81.96
2017-12-26T12:26:33.071Z,81.32
2017-12-26T12:28:58.850Z,83.02
2017-12-26T12:31:24.644Z,85.76
2017-12-26T12:33:50.429Z,89.15
2017-12-26T12:36:16.257Z,89.19
2017-12-26T12:38:42.084Z,91.18
2017-12-26T12:41:07.886Z,90.05
2017-12-26T12:43:33.684Z,90.46
2017-12-26T12:45:59.478Z,89.96
2017-12-26T12:48:25.436Z,90.12
2017-12-26T12:50:51.242Z,90.32
2017-12-26T12:53:17.041Z,89.75
2017-12-26T12:55:42.851Z,87.85
2017-12-26T12:58:08.635Z,87.34
2017-12-26T13:00:34.772Z,86.77
2017-12-26T13:03:00.579Z,87.19
2017-12-26T13:05:26.395Z,86.11
2017-12-26T13:07:52.179Z,86.09
2017-12-26T13:10:18.004Z,85.56
2017-12-26T13:12:43.793Z,86.29
2017-12-26T13:15:09.589Z,83.24
2017-12-26T13:17:35.759Z,82.80
2017-12-26T13:20:01.555Z,84.14
2017-12-26T13:22:27.594Z,83.85
2017-12-26T13:24:53.580Z,83.06
2017-12-26T13:27:19.375Z,81.86
2017-12-26T13:29:45.243Z,81.86
2017-12-26T13:32:11.047Z,80.86
2017-12-26T13:34:36.836Z,81.46
2017-12-26T13:37:02.824Z,80.72
2017-12-26T13:39:28.631Z,80.88
2017-12-26T13:41:54.571Z,81.75
2017-12-26T13:44:20.388Z,81.72
2017-12-26T13:46:46.175Z,81.90
2017-12-26T13:49:11.950Z,81.73
2017-12-26T13:51:37.747Z,81.70
2017-12-26T13:54:03.548Z,80.83
2017-12-26T13:56:29.358Z,81.23
2017-12-26T13:58:55.162Z,81.59
2017-12-26T14:01:20.959Z,81.30
2017-12-26T14:03:46.750Z,81.30
2017-12-26T14:06:12.535Z,81.38
2017-12-26T14:08:38.326Z,81.86
2017-12-26T14:11:04.119Z,82.72
2017-12-26T14:13:29.906Z,83.48
2017-12-26T14:15:55.697Z,83.27
2017-12-26T14:18:21.687Z,83.16
2017-12-26T14:20:47.475Z,82.33
2017-12-26T14:23:13.282Z,81.69
2017-12-26T14:25:39.300Z,80.89
2017-12-26T14:28:05.103Z,79.43
2017-12-26T14:30:30.899Z,80.13
2017-12-26T14:32:56.738Z,79.78
2017-12-26T14:35:22.534Z,78.12
2017-12-26T14:37:48.315Z,76.75
2017-12-26T14:40:14.111Z,76.17
2017-12-26T14:42:39.942Z,75.81
2017-12-26T14:45:05.754Z,75.71
2017-12-26T14:47:31.555Z,75.49
2017-12-26T14:49:57.359Z,75.82
2017-12-26T14:52:30.235Z,76.02
2017-12-26T14:54:56.042Z,75.86
2017-12-26T14:57:21.843Z,75.89
2017-12-26T14:59:47.622Z,75.58
2017-12-26T15:02:13.414Z,75.29
2017-12-26T15:04:39.210Z,75.11
2017-12-26T15:07:05.006Z,75.63
2017-12-26T15:09:30.818Z,75.41
2017-12-26T15:11:56.594Z,75.58
2017-12-26T15:14:22.379Z,74.82
2017-12-26T15:16:48.179Z,75.58
2017-12-26T15:19:14.269Z,74.81
2017-12-26T15:21:40.107Z,75.30
2017-12-26T15:24:05.898Z,75.34
2017-12-26T15:26:31.687Z,75.43
2017-12-26T15:28:57.492Z,75.54
2017-12-26T15:31:23.294Z,76.19
2017-12-26T15:33:49.086Z,75.17
2017-12-26T15:36:14.902Z,75.21
2017-12-26T15:38:40.683Z,76.16
2017-12-26T15:41:06.470Z,75.59
2017-12-26T15:43:32.258Z,75.87
2017-12-26T15:45:58.053Z,75.43
2017-12-26T15:48:23.826Z,75.86
2017-12-26T15:50:49.615Z,76.06
2017-12-26T15:53:15.402Z,76.42
2017-12-26T15:55:41.387Z,76.55
2017-12-26T15:58:07.175Z,76.82
2017-12-26T16:00:32.963Z,76.58
2017-12-26T16:02:58.755Z,76.77
2017-12-26T16:05:24.527Z,76.93
2017-12-26T16:07:50.346Z,77.14
2017-12-26T16:10:16.131Z,77.45
2017-12-26T16:12:41.914Z,77.39
2017-12-26T16:15:07.733Z,77.34
2017-12-26T16:17:33.510Z,77.89
2017-12-26T16:19:59.306Z,77.72
2017-12-26T16:22:25.110Z,78.05
2017-12-26T16:24:50.886Z,78.53
2017-12-26T16:27:16.662Z,78.40
2017-12-26T16:29:42.475Z,78.67
2017-12-26T16:32:08.264Z,78.90
2017-12-26T16:34:34.036Z,78.93
2017-12-26T16:36:59.840Z,78.95
2017-12-26T16:39:25.713Z,78.56
2017-12-26T16:41:51.502Z,78.34
2017-12-26T16:44:17.310Z,78.67
2017-12-26T16:46:43.091Z,78.79
2017-12-26T16:49:08.872Z,79.44
2017-12-26T16:51:34.687Z,78.97
2017-12-26T16:54:00.478Z,78.82
2017-12-26T16:56:26.259Z,78.68
2017-12-26T16:58:52.455Z,78.51
2017-12-26T17:01:18.242Z,78.69
2017-12-26T17:03:44.026Z,78.50
2017-12-26T17:06:09.811Z,78.59
2017-12-26T17:08:35.590Z,78.80
2017-12-26T17:11:01.768Z,78.68
2017-12-26T17:13:27.568Z,78.78
2017-12-26T17:15:53.356Z,78.30
2017-12-26T17:18:19.271Z,78.76
2017-12-26T17:20:45.067Z,78.89
2017-12-26T17:23:10.840Z,78.35
2017-12-26T17:25:36.868Z,77.79
2017-12-26T17:28:02.666Z,78.30
2017-12-26T17:30:28.443Z,78.00
2017-12-26T17:32:54.422Z,78.32
2017-12-26T17:35:20.206Z,78.50
2017-12-26T17:37:45.979Z,78.22
2017-12-26T17:40:11.775Z,78.49
2017-12-26T17:42:37.559Z,78.48
2017-12-26T17:45:03.364Z,77.31
2017-12-26T17:47:36.163Z,77.30
2017-12-26T17:50:01.991Z,77.80
2017-12-26T17:52:27.785Z,77.46
2017-12-26T17:54:53.558Z,77.90
2017-12-26T17:57:19.335Z,77.56
2017-12-26T17:59:45.446Z,77.52
2017-12-26T18:02:11.228Z,77.90
2017-12-26T18:04:37.015Z,78.10
2017-12-26T18:07:02.806Z,77.66
2017-12-26T18:09:28.590Z,78.03
2017-12-26T18:12:01.457Z,77.30
2017-12-26T18:14:27.269Z,77.81
2017-12-26T18:16:53.046Z,77.60
2017-12-26T18:19:18.826Z,77.16
2017-12-26T18:21:44.951Z,77.28
2017-12-26T18:24:10.755Z,77.09
2017-12-26T18:26:36.554Z,76.54
2017-12-26T18:29:02.383Z,76.63
2017-12-26T18:31:28.186Z,76.91
2017-12-26T18:33:53.958Z,75.68
2017-12-26T18:36:19.739Z,76.07
2017-12-26T18:38:45.522Z,75.47
2017-12-26T18:41:11.320Z,75.87
2017-12-26T18:43:37.094Z,75.57
2017-12-26T18:46:02.889Z,75.21
2017-12-26T18:48:28.706Z,75.35
2017-12-26T18:50:54.478Z,74.99
2017-12-26T18:53:20.259Z,75.13
2017-12-26T18:55:46.383Z,75.16
2017-12-26T18:58:12.167Z,75.36
2017-12-26T19:00:37.950Z,75.82
2017-12-26T19:03:03.750Z,75.42
2017-12-26T19:05:29.532Z,75.73
2017-12-26T19:07:55.333Z,75.59
2017-12-26T19:10:21.113Z,76.23
2017-12-26T19:12:46.895Z,75.82
2017-12-26T19:15:12.681Z,75.83
2017-12-26T19:17:38.465Z,76.07
2017-12-26T19:20:04.250Z,75.59
2017-12-26T19:22:30.038Z,76.25
2017-12-26T19:24:55.816Z,75.81
2017-12-26T19:27:21.637Z,75.69
2017-12-26T19:29:47.410Z,74.87
2017-12-26T19:32:13.182Z,75.48
2017-12-26T19:34:38.969Z,75.60
2017-12-26T19:37:04.751Z,75.39
2017-12-26T19:39:30.542Z,75.99
2017-12-26T19:41:56.353Z,75.95
2017-12-26T19:44:22.130Z,76.13
2017-12-26T19:46:47.919Z,76.18
2017-12-26T19:49:13.730Z,76.07
2017-12-26T19:51:39.521Z,75.96
2017-12-26T19:54:05.306Z,76.55
2017-12-26T19:56:31.107Z,76.19
2017-12-26T19:58:56.894Z,76.62
2017-12-26T20:01:22.691Z,75.82
2017-12-26T20:03:48.501Z,75.93
2017-12-26T20:06:14.283Z,76.25
2017-12-26T20:08:40.071Z,76.37
2017-12-26T20:11:05.866Z,76.41
2017-12-26T20:13:31.644Z,76.56
2017-12-26T20:15:57.427Z,76.46
2017-12-26T20:18:23.206Z,76.44
2017-12-26T20:20:49.010Z,76.42
2017-12-26T20:23:15.113Z,76.86
2017-12-26T20:25:40.907Z,76.80
2017-12-26T20:28:13.727Z,77.18
2017-12-26T20:30:39.502Z,77.19
2017-12-26T20:33:05.297Z,77.14
2017-12-26T20:35:31.102Z,77.70
2017-12-26T20:37:56.897Z,77.68
2017-12-26T20:40:22.698Z,78.09
2017-12-26T20:42:48.514Z,78.13
2017-12-26T20:45:14.290Z,78.39
2017-12-26T20:47:40.091Z,78.26
2017-12-26T20:50:05.891Z,78.67
2017-12-26T20:52:31.678Z,78.62
2017-12-26T20:54:57.450Z,79.00
2017-12-26T20:57:23.439Z,79.01
2017-12-26T20:59:49.221Z,78.87
2017-12-26T21:02:15.012Z,78.95
2017-12-26T21:04:40.804Z,79.04
2017-12-26T21:07:06.574Z,79.05
2017-12-26T21:09:32.366Z,79.17
2017-12-26T21:11:58.442Z,79.49
2017-12-26T21:14:24.234Z,79.46
2017-12-26T21:16:50.014Z,79.62
2017-12-26T21:19:15.809Z,79.55
2017-12-26T21:21:41.593Z,79.70
2017-12-26T21:24:07.407Z,79.62
2017-12-26T21:26:33.197Z,79.60
2017-12-26T21:28:58.994Z,79.58
2017-12-26T21:31:24.781Z,79.49
2017-12-26T21:33:50.582Z,79.92
2017-12-26T21:36:16.394Z,79.88
2017-12-26T21:38:42.164Z,80.36
2017-12-26T21:41:07.962Z,80.42
2017-12-26T21:43:33.742Z,80.40
2017-12-26T21:45:59.525Z,80.49
2017-12-26T21:48:25.325Z,80.76
2017-12-26T21:50:51.106Z,80.88
2017-12-26T21:53:16.884Z,81.03
2017-12-26T21:55:42.766Z,81.04
2017-12-26T21:58:08.551Z,81.25
2017-12-26T22:00:34.362Z,81.27
2017-12-26T22:03:00.170Z,81.38
2017-12-26T22:05:25.954Z,81.29
2017-12-26T22:07:51.731Z,81.36
2017-12-26T22:10:17.551Z,81.49
2017-12-26T22:12:43.339Z,81.40
2017-12-26T22:15:09.130Z,81.43
2017-12-26T22:17:34.934Z,81.73
2017-12-26T22:20:00.742Z,81.57
2017-12-26T22:22:26.506Z,81.55
2017-12-26T22:24:52.299Z,81.83
2017-12-26T22:27:18.206Z,81.79
2017-12-26T22:29:44.015Z,81.73
2017-12-26T22:32:09.802Z,81.68
2017-12-26T22:34:35.634Z,81.46
2017-12-26T22:37:02.611Z,81.33
2017-12-26T22:39:28.446Z,81.73
2017-12-26T22:41:54.254Z,81.83
2017-12-26T22:44:20.098Z,81.67
2017-12-26T22:46:45.873Z,81.59
2017-12-26T22:49:11.857Z,81.55
2017-12-26T22:51:37.668Z,81.49
2017-12-26T22:54:03.582Z,81.43
2017-12-26T22:56:29.438Z,81.08
2017-12-26T22:58:55.285Z,81.39
2017-12-26T23:01:21.110Z,81.20
2017-12-26T23:03:46.884Z,81.31
2017-12-26T23:06:12.682Z,81.22
2017-12-26T23:08:38.610Z,81.12
2017-12-26T23:11:04.574Z,81.43
2017-12-26T23:13:30.356Z,81.49
2017-12-26T23:16:02.290Z,81.75
2017-12-26T23:18:28.418Z,81.72
2017-12-26T23:21:01.034Z,81.89
2017-12-26T23:23:33.301Z,81.74
2017-12-26T23:26:05.282Z,81.95
2017-12-26T23:28:37.035Z,81.48
2017-12-26T23:31:09.045Z,81.70
2017-12-26T23:33:40.873Z,81.83
2017-12-26T23:39:09.573Z,81.31
2017-12-26T23:41:41.382Z,81.32
2017-12-26T23:44:13.238Z,81.49
2017-12-26T23:52:32.268Z,81.29
2017-12-26T23:55:04.385Z,81.86
2017-12-26T23:57:36.350Z,81.62
